Time;durP1;ratioP1;P1;durP2;ratioP2;P2;SDS_P1;SDS_P2;PMS_P1;PMS_P2;Temp;Humidity;BMP_temperature;BMP_pressure;BME280_temperature;BME280_humidity;BME280_pressure;Samples;Min_cycle;Max_cycle;Signal;HPM_P1;HPM_P2
2023/05/31 00:00:04;;;;;;;3.92;3.67;;;;;;;15.95;100.00;63649.38;5119873;28;20198;-80
2023/05/31 00:02:32;;;;;;;5.25;4.00;;;;;;;15.95;100.00;63643.72;5122100;28;20238;-81
2023/05/31 00:04:59;;;;;;;4.70;4.32;;;;;;;15.83;100.00;63633.81;5133211;28;20243;-81
2023/05/31 00:07:26;;;;;;;5.15;4.75;;;;;;;15.98;100.00;63655.06;5131890;28;20234;-81
2023/05/31 00:09:53;;;;;;;4.82;4.43;;;;;;;15.81;100.00;63639.44;5130175;28;20205;-81
2023/05/31 00:12:20;;;;;;;5.40;4.90;;;;;;;15.88;100.00;63644.13;5112564;28;20234;-80
2023/05/31 00:14:49;;;;;;;5.45;4.95;;;;;;;15.72;100.00;63622.38;5115304;28;20203;-79
2023/05/31 00:17:16;;;;;;;17.92;4.72;;;;;;;15.88;100.00;63639.00;5114941;28;20232;-81
2023/05/31 00:19:43;;;;;;;4.22;3.90;;;;;;;15.91;100.00;63642.13;5125925;28;20195;-80
2023/05/31 00:22:11;;;;;;;4.20;3.72;;;;;;;15.63;100.00;63610.97;5110345;28;20227;-80
2023/05/31 00:24:39;;;;;;;4.40;3.97;;;;;;;15.65;100.00;63615.59;5109789;28;20402;-80
2023/05/31 00:27:07;;;;;;;4.07;3.78;;;;;;;15.56;100.00;63610.88;5121021;28;20252;-82
2023/05/31 00:29:34;;;;;;;3.50;3.30;;;;;;;15.59;100.00;63609.38;5128406;28;20195;-80
2023/05/31 00:32:03;;;;;;;4.10;3.80;;;;;;;15.90;100.00;63639.03;5134868;27;20270;-80
2023/05/31 00:34:30;;;;;;;4.72;3.80;;;;;;;15.89;100.00;63640.56;5130926;28;20202;-80
2023/05/31 00:36:57;;;;;;;4.80;3.58;;;;;;;15.96;100.00;63649.91;5115843;28;20226;-79
2023/05/31 00:39:25;;;;;;;3.85;3.45;;;;;;;15.97;100.00;63648.38;5110120;28;20242;-82
2023/05/31 00:41:52;;;;;;;4.57;4.28;;;;;;;15.87;100.00;63643.13;5109941;28;20215;-80
2023/05/31 00:44:19;;;;;;;6.40;3.92;;;;;;;15.86;100.00;63639.50;5109806;28;20195;-82
2023/05/31 00:46:47;;;;;;;6.13;4.65;;;;;;;15.86;100.00;63642.06;5124869;28;20246;-80
2023/05/31 00:49:16;;;;;;;7.38;4.32;;;;;;;15.82;100.00;63630.75;5112260;28;20245;-81
2023/05/31 00:51:43;;;;;;;4.10;3.80;;;;;;;15.86;100.00;63634.34;5111941;28;20226;-79
2023/05/31 00:54:11;;;;;;;4.55;4.15;;;;;;;15.90;100.00;63643.66;5111690;28;20192;-81
2023/05/31 00:56:38;;;;;;;3.55;3.28;;;;;;;15.90;100.00;63638.53;5120603;28;20580;-81
2023/05/31 00:59:05;;;;;;;3.80;3.42;;;;;;;16.00;100.00;63652.00;5129891;28;20195;-80
2023/05/31 01:01:33;;;;;;;3.88;3.58;;;;;;;16.00;100.00;63656.63;5130767;28;20218;-80
2023/05/31 01:04:01;;;;;;;4.35;4.03;;;;;;;15.98;100.00;63649.41;5129788;28;20220;-81
2023/05/31 01:06:32;;;;;;;4.70;3.47;;;;;;;16.00;100.00;63654.56;5127675;28;20230;-81
2023/05/31 01:09:04;;;;;;;4.07;3.65;;;;;;;15.97;100.00;63653.50;5132216;28;20198;-82
2023/05/31 01:11:45;;;;;;;4.13;3.83;;;;;;;15.83;100.00;63633.81;5132977;27;20268;-81
2023/05/31 01:14:21;;;;;;;3.70;3.50;;;;;;;15.56;100.00;63605.75;5130827;28;20266;-79
2023/05/31 01:16:54;;;;;;;3.38;3.17;;;;;;;15.50;100.00;63599.50;5130026;28;20214;-82
2023/05/31 01:19:35;;;;;;;4.38;3.92;;;;;;;15.56;100.00;63606.28;5129464;28;20495;-80
2023/05/31 01:22:15;;;;;;;4.28;3.97;;;;;;;15.67;100.00;63615.13;5129421;28;20238;-80
2023/05/31 01:24:53;;;;;;;5.25;3.72;;;;;;;15.76;100.00;63629.09;5133016;28;20261;-81
2023/05/31 01:27:23;;;;;;;4.20;3.90;;;;;;;15.83;100.00;63628.66;5132555;28;20291;-81
2023/05/31 01:29:54;;;;;;;3.13;2.92;;;;;;;15.91;100.00;63642.66;5130517;28;20216;-80
2023/05/31 01:32:27;;;;;;;4.03;3.72;;;;;;;15.90;100.00;63636.47;5122540;27;20253;-82
2023/05/31 01:34:57;;;;;;;3.17;2.97;;;;;;;15.90;100.00;63636.47;5110108;28;20246;-80
2023/05/31 01:37:24;;;;;;;3.33;3.13;;;;;;;15.89;100.00;63643.13;5108196;28;20532;-81
2023/05/31 01:39:54;;;;;;;4.65;3.15;;;;;;;15.87;100.00;63645.69;5111708;28;20245;-81
2023/05/31 01:42:24;;;;;;;3.40;3.10;;;;;;;15.94;100.00;63648.34;5127271;28;20207;-81
2023/05/31 01:44:52;;;;;;;2.72;2.58;;;;;;;15.92;100.00;63646.25;5112084;28;20192;-79
2023/05/31 01:47:21;;;;;;;6.70;3.58;;;;;;;15.91;100.00;63639.56;5109534;28;20223;-82
2023/05/31 01:49:49;;;;;;;3.58;3.45;;;;;;;15.86;100.00;63637.44;5110303;28;20212;-81
2023/05/31 01:52:18;;;;;;;3.75;3.33;;;;;;;15.92;100.00;63646.25;5108475;28;20215;-80
2023/05/31 01:54:45;;;;;;;3.83;3.50;;;;;;;15.83;100.00;63639.47;5109904;28;20195;-81
2023/05/31 01:57:14;;;;;;;4.47;3.03;;;;;;;15.85;100.00;63639.00;5108787;28;20215;-80
2023/05/31 01:59:43;;;;;;;2.85;2.67;;;;;;;15.92;100.00;63643.19;5120937;28;20255;-81
2023/05/31 02:02:11;;;;;;;3.28;2.95;;;;;;;15.94;100.00;63650.91;5112267;28;20215;-81
2023/05/31 02:04:38;;;;;;;3.53;3.33;;;;;;;15.99;100.00;63650.97;5130625;28;20195;-81
2023/05/31 02:07:05;;;;;;;3.58;3.38;;;;;;;15.88;100.00;63642.09;5127022;28;20256;-81
2023/05/31 02:09:32;;;;;;;4.32;3.15;;;;;;;15.98;100.00;63649.94;5128491;28;20227;-80
2023/05/31 02:11:59;;;;;;;3.60;3.38;;;;;;;16.01;100.00;63655.59;5129574;28;20222;-81
2023/05/31 02:14:28;;;;;;;3.35;2.97;;;;;;;15.97;100.00;63651.47;5129280;28;20207;-82
2023/05/31 02:16:58;;;;;;;5.15;3.33;;;;;;;15.74;100.00;63627.00;5115548;28;20397;-81
2023/05/31 02:19:25;;;;;;;3.38;3.13;;;;;;;15.81;100.00;63634.28;5108952;28;20203;-81
2023/05/31 02:21:52;;;;;;;3.17;2.97;;;;;;;15.93;100.00;63649.88;5109463;28;20226;-81
2023/05/31 02:24:19;;;;;;;4.80;3.67;;;;;;;15.98;100.00;63654.53;5108705;28;20512;-82
2023/05/31 02:26:46;;;;;;;3.33;3.03;;;;;;;15.88;100.00;63636.97;5108455;28;20235;-80
2023/05/31 02:29:13;;;;;;;3.60;3.30;;;;;;;15.89;100.00;63645.69;5113224;28;20322;-81
2023/05/31 02:31:40;;;;;;;3.63;3.33;;;;;;;15.86;100.00;63642.59;5128823;28;20211;-81
2023/05/31 02:34:09;;;;;;;3.80;3.45;;;;;;;15.98;100.00;63649.41;5126974;28;20192;-82
2023/05/31 02:36:36;;;;;;;5.65;3.90;;;;;;;15.98;100.00;63652.50;5121435;28;20545;-81
2023/05/31 02:39:03;;;;;;;3.33;3.13;;;;;;;16.01;100.00;63650.47;5130164;28;20199;-79
2023/05/31 02:41:30;;;;;;;3.97;3.67;;;;;;;16.06;100.00;63660.31;5132178;28;20248;-82
2023/05/31 02:43:57;;;;;;;5.05;3.78;;;;;;;16.11;100.00;63663.47;5116307;28;20222;-79
2023/05/31 02:46:23;;;;;;;3.97;3.67;;;;;;;16.11;100.00;63663.47;5107980;28;20230;-82
2023/05/31 02:48:50;;;;;;;4.65;4.32;;;;;;;16.01;100.00;63649.97;5112123;28;20191;-82
2023/05/31 02:51:19;;;;;;;4.05;3.75;;;;;;;16.09;100.00;63658.28;5108088;28;20215;-79
2023/05/31 02:53:47;;;;;;;5.20;3.75;;;;;;;16.08;100.00;63662.38;5107887;28;20195;-81
2023/05/31 02:56:14;;;;;;;4.00;3.70;;;;;;;16.04;100.00;63653.59;5108399;28;20210;-82
2023/05/31 02:58:41;;;;;;;4.90;4.50;;;;;;;16.11;100.00;63665.50;5109978;28;20192;-81
2023/05/31 03:01:08;;;;;;;3.83;3.58;;;;;;;16.16;100.00;63673.78;5109013;28;20195;-80
2023/05/31 03:03:37;;;;;;;4.38;4.00;;;;;;;16.19;100.00;63671.25;5120496;28;20199;-81
2023/05/31 03:06:04;;;;;;;4.25;3.80;;;;;;;16.10;100.00;63662.41;5131510;28;20191;-81
2023/05/31 03:08:33;;;;;;;4.70;4.35;;;;;;;15.96;100.00;63644.78;5130338;28;20264;-81
2023/05/31 03:11:00;;;;;;;4.28;3.97;;;;;;;16.13;100.00;63665.00;5124789;28;20228;-80
2023/05/31 03:13:27;;;;;;;4.28;3.97;;;;;;;16.20;100.00;63672.31;5107696;28;20207;-80
2023/05/31 03:15:54;;;;;;;4.25;3.85;;;;;;;16.28;100.00;63682.66;5112965;28;20199;-79
2023/05/31 03:18:21;;;;;;;6.18;3.90;;;;;;;16.16;100.00;63668.66;5107929;28;20278;-80
2023/05/31 03:20:49;;;;;;;4.25;3.90;;;;;;;16.26;100.00;63680.56;5109535;28;20263;-79
2023/05/31 03:23:16;;;;;;;6.45;4.30;;;;;;;16.37;100.00;63689.44;5106942;28;20200;-79
2023/05/31 03:25:45;;;;;;;4.40;4.05;;;;;;;16.30;100.00;63685.25;5113082;28;20330;-80
2023/05/31 03:28:11;;;;;;;4.43;4.03;;;;;;;16.30;100.00;63684.75;5112396;28;20227;-80
2023/05/31 03:30:39;;;;;;;4.13;3.78;;;;;;;16.30;100.00;63682.69;5113879;28;20226;-81
2023/05/31 03:33:07;;;;;;;7.35;4.60;;;;;;;16.29;100.00;63678.56;5111992;28;20235;-80
2023/05/31 03:35:35;;;;;;;4.38;3.90;;;;;;;16.32;100.00;63689.91;5111651;28;20191;-81
2023/05/31 03:38:02;;;;;;;4.63;4.22;;;;;;;16.32;100.00;63689.41;5111314;28;20215;-80
2023/05/31 03:40:29;;;;;;;4.70;4.30;;;;;;;16.35;100.00;63687.38;5130287;28;20199;-81
2023/05/31 03:42:57;;;;;;;4.20;3.90;;;;;;;16.20;100.00;63675.38;5132913;28;20250;-80
2023/05/31 03:45:25;;;;;;;4.05;3.85;;;;;;;16.34;100.00;63688.91;5132202;28;20194;-81
2023/05/31 03:47:52;;;;;;;6.35;4.80;;;;;;;16.42;100.00;63694.66;5122747;28;20257;-81
2023/05/31 03:50:19;;;;;;;5.80;5.22;;;;;;;16.32;100.00;63684.25;5134614;28;20312;-81
2023/05/31 03:52:46;;;;;;;5.07;4.03;;;;;;;16.38;100.00;63693.59;5133465;28;20237;-81
2023/05/31 03:55:14;;;;;;;7.60;4.80;;;;;;;16.45;100.00;63700.88;5129420;28;20195;-80
2023/05/31 03:57:41;;;;;;;4.55;4.25;;;;;;;16.52;100.00;63705.59;5124167;28;20229;-82
2023/05/31 04:00:12;;;;;;;4.95;4.65;;;;;;;16.49;100.00;63707.63;5133987;28;20236;-82
2023/05/31 04:02:41;;;;;;;7.15;5.05;;;;;;;16.50;100.00;63703.50;5132046;28;20269;-81
2023/05/31 04:05:08;;;;;;;5.13;4.63;;;;;;;16.50;100.00;63703.00;5131975;28;20249;-81
2023/05/31 04:07:36;;;;;;;5.40;5.00;;;;;;;16.54;100.00;63712.81;5132440;28;20283;-80
2023/05/31 04:10:03;;;;;;;10.48;4.88;;;;;;;16.50;100.00;63703.00;5131834;28;20201;-79
2023/05/31 04:12:30;;;;;;;8.57;5.13;;;;;;;16.46;100.00;63701.94;5129784;28;20214;-80
2023/05/31 04:14:57;;;;;;;5.03;4.57;;;;;;;16.39;100.00;63696.69;5120799;28;20234;-80
2023/05/31 04:17:25;;;;;;;5.22;4.88;;;;;;;16.44;100.00;63697.25;5133289;28;20344;-81
2023/05/31 04:19:52;;;;;;;5.22;4.82;;;;;;;16.44;100.00;63697.25;5130992;28;20244;-81
2023/05/31 04:22:20;;;;;;;7.13;6.13;;;;;;;16.25;100.00;63677.50;5129561;28;20277;-81
2023/05/31 04:24:47;;;;;;;8.65;6.28;;;;;;;16.37;100.00;63692.03;5121649;28;20246;-82
2023/05/31 04:27:18;;;;;;;7.88;6.88;;;;;;;16.40;100.00;63693.09;5109257;28;20401;-79
2023/05/31 04:29:45;;;;;;;10.10;6.63;;;;;;;16.51;100.00;63704.56;5109367;28;20249;-81
2023/05/31 04:32:14;;;;;;;7.93;6.78;;;;;;;16.47;100.00;63699.88;5113961;28;20237;-80
2023/05/31 04:34:43;;;;;;;10.10;6.50;;;;;;;16.79;100.00;63730.59;5110116;28;20219;-83
2023/05/31 04:37:10;;;;;;;7.32;6.18;;;;;;;16.95;100.00;63747.25;5111034;28;20219;-82
2023/05/31 04:39:37;;;;;;;5.68;5.18;;;;;;;17.01;100.00;63756.06;5111149;28;20206;-81
2023/05/31 04:42:06;;;;;;;6.75;5.68;;;;;;;17.02;100.00;63757.09;5112313;28;20227;-82
2023/05/31 04:44:33;;;;;;;5.72;4.68;;;;;;;17.13;100.00;63771.13;5109228;28;20421;-81
2023/05/31 04:47:00;;;;;;;5.95;5.38;;;;;;;17.11;100.00;63767.00;5110386;28;20411;-81
2023/05/31 04:49:27;;;;;;;7.18;5.28;;;;;;;17.10;100.00;63768.00;5111506;28;20234;-81
2023/05/31 04:51:56;;;;;;;7.05;5.43;;;;;;;17.20;100.00;63773.78;5123179;28;20335;-79
2023/05/31 04:54:23;;;;;;;9.75;6.57;;;;;;;17.26;100.00;63787.75;5117004;28;20207;-82
2023/05/31 04:56:50;;;;;;;7.38;5.70;;;;;;;17.35;100.00;63791.47;5110197;28;20247;-80
2023/05/31 04:59:17;;;;;;;5.95;5.45;;;;;;;17.27;100.00;63785.72;5117131;28;20191;-82
2023/05/31 05:01:45;;;;;;;6.93;6.30;;;;;;;17.11;100.00;63766.47;5131077;27;20226;-81
2023/05/31 05:04:12;;;;;;;7.10;6.40;;;;;;;17.06;100.00;63761.28;5130751;27;20199;-81
2023/05/31 05:06:41;;;;;;;6.93;6.32;;;;;;;17.24;100.00;63780.53;5134131;28;20230;-81
2023/05/31 05:09:10;;;;;;;6.63;6.13;;;;;;;17.44;100.00;63805.97;5124848;28;20298;-82
2023/05/31 05:11:38;;;;;;;6.70;5.97;;;;;;;17.54;100.00;63811.25;5132948;28;20278;-81
2023/05/31 05:14:05;;;;;;;7.25;6.53;;;;;;;17.72;100.00;63826.91;5132337;28;20194;-82
2023/05/31 05:16:32;;;;;;;7.13;6.00;;;;;;;17.96;100.00;63857.59;5128876;28;20223;-81
2023/05/31 05:18:59;;;;;;;6.43;5.93;;;;;;;18.04;100.00;63862.81;5112036;28;20187;-80
2023/05/31 05:21:26;;;;;;;9.02;5.53;;;;;;;17.95;100.00;63856.53;5114648;28;20227;-82
2023/05/31 05:23:53;;;;;;;7.43;6.03;;;;;;;18.05;100.00;63866.94;5109736;28;20199;-81
2023/05/31 05:26:21;;;;;;;6.57;5.95;;;;;;;18.06;100.00;63865.41;5113808;28;20245;-82
2023/05/31 05:28:48;;;;;;;6.07;5.50;;;;;;;18.25;100.00;63887.28;5110298;28;20230;-82
2023/05/31 05:31:16;;;;;;;6.03;5.63;;;;;;;18.23;100.00;63885.19;5130199;28;20227;-82
2023/05/31 05:33:43;;;;;;;7.13;5.95;;;;;;;18.11;100.00;63870.09;5130242;28;20190;-81
2023/05/31 05:36:12;;;;;;;7.00;6.40;;;;;;;17.91;100.00;63849.78;5121517;28;20210;-81
2023/05/31 05:38:40;;;;;;;7.22;6.50;;;;;;;17.86;100.00;63847.16;5107944;28;20215;-82
2023/05/31 05:41:10;;;;;;;7.53;6.50;;;;;;;18.16;100.00;63878.41;5110136;28;20195;-82
2023/05/31 05:43:39;;;;;;;6.97;6.28;;;;;;;18.31;100.00;63893.50;5110244;28;20518;-81
2023/05/31 05:46:06;;;;;;;6.13;5.53;;;;;;;18.66;100.00;63929.47;5111640;28;20191;-82
2023/05/31 05:48:34;;;;;;;6.88;6.15;;;;;;;18.61;100.00;63924.28;5108472;28;20227;-82
2023/05/31 05:51:01;;;;;;;6.50;5.97;;;;;;;18.93;100.00;63960.72;5110237;28;20195;-81
2023/05/31 05:53:28;;;;;;;5.70;5.20;;;;;;;19.19;100.00;63985.25;5109061;28;20489;-82
2023/05/31 05:55:55;;;;;;;6.45;5.85;;;;;;;19.36;99.78;63999.91;5118155;28;20221;-83
2023/05/31 05:58:22;;;;;;;6.43;5.93;;;;;;;19.20;100.00;63983.72;5130678;28;20365;-80
2023/05/31 06:00:51;;;;;;;6.88;6.28;;;;;;;19.42;100.00;64009.28;5125217;28;20348;-82
2023/05/31 06:03:18;;;;;;;6.30;5.80;;;;;;;19.57;97.88;64021.81;5119063;28;20202;-82
2023/05/31 06:05:45;;;;;;;6.13;5.63;;;;;;;19.52;97.14;64017.13;5130086;28;20257;-82
2023/05/31 06:08:13;;;;;;;6.05;5.55;;;;;;;19.21;100.00;63981.66;5129423;28;20431;-81
2023/05/31 06:10:40;;;;;;;8.25;5.88;;;;;;;19.45;100.00;64017.03;5128621;28;20254;-82
2023/05/31 06:13:08;;;;;;;8.15;5.32;;;;;;;19.71;99.44;64035.91;5128318;28;20214;-82
2023/05/31 06:15:35;;;;;;;7.53;6.82;;;;;;;19.73;100.00;64037.97;5117706;28;20203;-81
2023/05/31 06:18:04;;;;;;;7.05;5.57;;;;;;;19.71;99.89;64036.41;5118223;28;20296;-82
2023/05/31 06:20:31;;;;;;;5.00;4.70;;;;;;;19.79;97.99;64046.81;5122203;28;20217;-80
2023/05/31 06:22:58;;;;;;;6.15;5.60;;;;;;;19.59;98.94;64026.47;5111307;28;20210;-80
2023/05/31 06:25:26;;;;;;;7.28;5.55;;;;;;;19.37;99.74;63998.91;5116002;28;20283;-81
2023/05/31 06:27:53;;;;;;;7.10;5.60;;;;;;;19.45;100.00;64009.28;5121814;28;20285;-81
2023/05/31 06:30:21;;;;;;;6.00;5.40;;;;;;;19.53;99.68;64020.72;5123739;28;20215;-82
2023/05/31 06:32:49;;;;;;;5.57;5.13;;;;;;;19.75;98.46;64040.59;5113351;28;20219;-82
2023/05/31 06:35:17;;;;;;;7.15;5.72;;;;;;;19.92;98.53;64057.78;5117599;28;20270;-80
2023/05/31 06:37:46;;;;;;;6.75;6.07;;;;;;;19.78;95.08;64043.19;5113965;28;20218;-81
2023/05/31 06:40:12;;;;;;;6.43;5.90;;;;;;;19.97;95.75;64070.75;5115730;28;20368;-81
2023/05/31 06:42:40;;;;;;;9.10;5.22;;;;;;;19.75;98.33;64045.22;5119608;28;20211;-80
2023/05/31 06:45:08;;;;;;;6.22;5.70;;;;;;;19.80;100.00;64045.28;5122952;28;20251;-82
2023/05/31 06:47:35;;;;;;;6.45;5.40;;;;;;;20.38;97.27;64103.25;5116938;28;20227;-79
2023/05/31 06:50:06;;;;;;;5.82;5.18;;;;;;;20.69;92.48;64136.09;5112815;28;20194;-82
2023/05/31 06:52:34;;;;;;;5.55;5.07;;;;;;;20.72;88.54;64143.38;5111057;28;20248;-80
2023/05/31 06:55:02;;;;;;;5.32;4.95;;;;;;;21.20;88.64;64196.09;5121346;28;20202;-81
2023/05/31 06:57:29;;;;;;;12.88;7.05;;;;;;;21.56;85.26;64233.69;5113428;28;20252;-82
2023/05/31 06:59:56;;;;;;;9.77;6.13;;;;;;;21.86;84.08;64265.06;5119458;28;20237;-82
2023/05/31 07:02:23;;;;;;;10.45;5.30;;;;;;;21.82;81.16;64263.47;5131271;28;20252;-83
2023/05/31 07:04:51;;;;;;;8.63;5.70;;;;;;;21.53;84.48;64227.97;5118902;28;20523;-82
2023/05/31 07:07:19;;;;;;;15.57;5.72;;;;;;;21.17;83.66;64188.31;5128602;28;20277;-80
2023/05/31 07:09:47;;;;;;;5.57;5.05;;;;;;;21.67;80.23;64245.19;5123574;28;20245;-82
2023/05/31 07:12:14;;;;;;;5.22;4.82;;;;;;;22.02;78.40;64281.28;5110722;28;20207;-80
2023/05/31 07:14:41;;;;;;;5.32;4.93;;;;;;;22.28;74.39;64306.38;5111286;28;20207;-80
2023/05/31 07:17:11;;;;;;;5.85;5.15;;;;;;;22.57;74.39;64336.19;5115521;28;20211;-81
2023/05/31 07:19:44;;;;;;;9.27;5.32;;;;;;;22.42;74.35;64318.41;5111470;28;20202;-82
2023/05/31 07:22:13;;;;;;;5.82;4.55;;;;;;;22.16;74.26;64285.53;5112010;28;20240;-80
2023/05/31 07:24:49;;;;;;;5.43;4.95;;;;;;;21.99;78.94;64273.47;5114828;28;20205;-81
2023/05/31 07:27:19;;;;;;;5.40;4.90;;;;;;;22.09;77.93;64283.91;5111193;28;20230;-81
2023/05/31 07:29:46;;;;;;;5.38;4.78;;;;;;;21.92;77.67;64265.63;5111049;28;20226;-81
2023/05/31 07:32:14;;;;;;;6.45;4.60;;;;;;;22.32;76.47;64310.56;5114596;28;20223;-81
2023/05/31 07:34:41;;;;;;;4.80;4.50;;;;;;;22.69;71.98;64351.34;5116321;28;20195;-82
2023/05/31 07:37:08;;;;;;;7.65;6.45;;;;;;;22.88;69.71;64366.50;5110951;28;20215;-81
2023/05/31 07:39:35;;;;;;;5.63;4.38;;;;;;;22.56;70.26;64329.94;5111414;28;20195;-81
2023/05/31 07:42:02;;;;;;;6.53;5.93;;;;;;;22.20;73.17;64295.41;5113654;28;20264;-82
2023/05/31 07:44:31;;;;;;;7.18;5.50;;;;;;;22.08;72.22;64288.06;5113742;28;20219;-81
2023/05/31 07:46:58;;;;;;;7.68;5.80;;;;;;;22.30;73.60;64305.88;5111420;28;20523;-81
2023/05/31 07:49:25;;;;;;;5.90;5.40;;;;;;;22.66;73.61;64346.09;5112602;28;20543;-82
2023/05/31 07:51:53;;;;;;;7.88;5.25;;;;;;;23.06;71.44;64387.41;5112878;28;20291;-82
2023/05/31 07:54:20;;;;;;;4.95;4.57;;;;;;;23.10;71.00;64396.28;5113438;28;20199;-84
2023/05/31 07:56:46;;;;;;;5.68;5.18;;;;;;;23.29;66.59;64413.56;5111014;28;20211;-80
2023/05/31 07:59:16;;;;;;;5.20;4.65;;;;;;;23.21;67.15;64407.78;5112731;28;20195;-82
2023/05/31 08:01:46;;;;;;;4.65;4.35;;;;;;;23.51;66.95;64437.13;5112200;28;20219;-84
2023/05/31 08:04:13;;;;;;;5.15;4.75;;;;;;;23.37;66.11;64416.72;5114831;28;20492;-82
2023/05/31 08:06:41;;;;;;;5.05;4.63;;;;;;;23.33;65.15;64415.16;5113877;28;20219;-81
2023/05/31 08:09:09;;;;;;;4.70;4.40;;;;;;;23.11;66.67;64386.94;5114046;28;20253;-80
2023/05/31 08:11:38;;;;;;;7.00;4.82;;;;;;;23.11;67.40;64390.03;5112826;28;20215;-83
2023/05/31 08:14:06;;;;;;;5.55;4.78;;;;;;;22.83;65.22;64360.78;5112942;28;20203;-81
2023/05/31 08:16:34;;;;;;;5.20;4.80;;;;;;;22.89;69.41;64367.03;5111520;28;20222;-83
2023/05/31 08:19:03;;;;;;;5.60;4.32;;;;;;;23.54;68.01;64431.94;5114016;28;20221;-83
2023/05/31 08:21:31;;;;;;;4.93;4.38;;;;;;;23.53;67.02;64434.00;5113295;28;20233;-83
2023/05/31 08:24:00;;;;;;;5.30;4.80;;;;;;;23.99;62.72;64484.22;5112147;28;20184;-84
2023/05/31 08:26:28;;;;;;;5.45;5.05;;;;;;;23.76;65.49;64463.25;5112124;28;20392;-82
2023/05/31 08:29:02;;;;;;;7.55;4.72;;;;;;;23.99;64.15;64484.22;5112998;28;20231;-82
2023/05/31 08:31:29;;;;;;;5.47;5.05;;;;;;;24.30;63.00;64513.56;5111153;28;20211;-83
2023/05/31 08:33:58;;;;;;;6.75;4.35;;;;;;;24.47;62.73;64534.47;5112112;28;20221;-82
2023/05/31 08:36:27;;;;;;;6.03;5.18;;;;;;;24.91;60.49;64580.59;5114402;28;20235;-82
2023/05/31 08:38:54;;;;;;;4.72;4.32;;;;;;;24.67;59.54;64550.22;5113363;28;20395;-81
2023/05/31 08:41:25;;;;;;;4.47;4.18;;;;;;;24.34;61.04;64520.88;5112109;28;20242;-82
2023/05/31 08:43:52;;;;;;;5.50;5.10;;;;;;;24.41;61.72;64527.66;5110373;28;20196;-82
2023/05/31 08:46:20;;;;;;;8.10;5.63;;;;;;;24.72;60.06;64560.16;5112522;28;20591;-82
2023/05/31 08:48:53;;;;;;;7.10;5.78;;;;;;;24.87;61.11;64575.84;5111447;28;20283;-81
2023/05/31 08:51:24;;;;;;;5.75;5.18;;;;;;;25.17;59.11;64606.75;5111493;28;20260;-83
2023/05/31 08:53:54;;;;;;;6.10;4.80;;;;;;;24.92;57.71;64579.00;5115491;28;20196;-82
2023/05/31 08:56:21;;;;;;;5.28;4.80;;;;;;;24.14;61.16;64502.53;5111593;28;20524;-82
2023/05/31 08:58:51;;;;;;;5.78;5.18;;;;;;;23.94;64.55;64482.09;5111554;28;20227;-83
2023/05/31 09:01:19;;;;;;;5.40;4.97;;;;;;;23.97;63.50;64476.91;5112341;28;20227;-81
2023/05/31 09:03:47;;;;;;;5.22;4.88;;;;;;;23.97;64.22;64477.44;5123618;28;20201;-82
2023/05/31 09:06:16;;;;;;;4.63;4.28;;;;;;;24.41;63.12;64530.28;5136091;28;20209;-83
2023/05/31 09:08:43;;;;;;;5.22;4.75;;;;;;;24.47;60.46;64534.47;5133293;27;20237;-84
2023/05/31 09:11:13;;;;;;;7.10;6.05;;;;;;;24.42;63.67;64528.72;5131521;28;20221;-81
2023/05/31 09:13:41;;;;;;;6.20;5.65;;;;;;;24.59;62.33;64549.13;5131644;28;20265;-82
2023/05/31 09:16:11;;;;;;;7.80;5.47;;;;;;;24.69;61.76;64554.94;5131987;28;20183;-83
2023/05/31 09:18:39;;;;;;;7.15;5.70;;;;;;;24.59;61.33;64549.66;5130272;28;20218;-81
2023/05/31 09:21:11;;;;;;;7.18;6.15;;;;;;;24.42;61.46;64526.63;5134254;28;20194;-81
2023/05/31 09:23:38;;;;;;;6.95;5.85;;;;;;;24.71;60.51;64559.63;5132444;28;20243;-80
2023/05/31 09:26:08;;;;;;;7.88;5.25;;;;;;;24.06;64.33;64494.16;5132259;28;20258;-80
2023/05/31 09:28:36;;;;;;;7.22;5.45;;;;;;;24.43;60.86;64530.31;5132582;28;20222;-82
2023/05/31 09:31:08;;;;;;;6.72;5.20;;;;;;;24.70;62.00;64558.06;5118203;28;20217;-82
2023/05/31 09:33:41;;;;;;;5.80;5.18;;;;;;;24.60;61.60;64544.97;5112070;28;20206;-81
2023/05/31 09:36:13;;;;;;;5.70;5.30;;;;;;;24.42;65.01;64529.25;5112771;28;20231;-83
2023/05/31 09:38:46;;;;;;;5.80;5.30;;;;;;;24.97;63.56;64588.94;5115879;28;20191;-83
2023/05/31 09:41:16;;;;;;;8.27;5.10;;;;;;;24.93;59.75;64582.16;5118438;28;20207;-83
2023/05/31 09:43:54;;;;;;;5.68;5.22;;;;;;;25.00;62.09;64592.63;5115499;28;20191;-83
2023/05/31 09:46:22;;;;;;;4.95;4.45;;;;;;;24.50;60.15;64540.22;5120141;28;20238;-84
2023/05/31 09:48:59;;;;;;;4.90;4.60;;;;;;;23.92;61.80;64479.47;5121095;28;20233;-81
2023/05/31 09:51:27;;;;;;;4.72;4.43;;;;;;;23.67;63.56;64453.31;5131776;28;20223;-83
2023/05/31 09:54:01;;;;;;;5.22;4.82;;;;;;;23.77;62.73;64461.19;5116244;28;20207;-84
2023/05/31 09:56:32;;;;;;;5.40;4.40;;;;;;;23.74;60.98;64455.44;5123686;28;20366;-83
2023/05/31 09:59:03;;;;;;;5.10;4.70;;;;;;;23.70;65.05;64448.66;5130015;28;20179;-83
2023/05/31 10:01:31;;;;;;;5.40;5.00;;;;;;;23.98;64.21;64483.16;5123007;28;20302;-82
2023/05/31 10:03:59;;;;;;;5.93;5.40;;;;;;;24.33;63.48;64519.31;5125882;28;20261;-84
2023/05/31 10:06:26;;;;;;;5.45;4.95;;;;;;;24.28;60.85;64511.47;5121624;28;20218;-83
2023/05/31 10:08:54;;;;;;;6.22;5.68;;;;;;;24.41;63.09;64525.59;5123644;28;20238;-82
2023/05/31 10:11:26;;;;;;;5.20;4.88;;;;;;;24.51;61.88;64541.28;5126288;28;20254;-86
2023/05/31 10:13:58;;;;;;;5.75;5.22;;;;;;;24.57;61.50;64542.34;5110271;28;20252;-82
2023/05/31 10:16:28;;;;;;;4.97;4.53;;;;;;;24.77;62.67;64565.38;5125301;28;20572;-82
2023/05/31 10:19:01;;;;;;;4.32;4.03;;;;;;;24.93;58.59;64580.06;5127989;28;20187;-83
2023/05/31 10:21:29;;;;;;;4.85;4.53;;;;;;;24.62;59.11;64549.66;5127118;28;20214;-81
2023/05/31 10:23:58;;;;;;;4.78;4.47;;;;;;;24.46;60.06;64533.44;5121618;28;20218;-82
2023/05/31 10:26:37;;;;;;;5.82;4.45;;;;;;;24.72;57.70;64557.53;5115482;28;20220;-84
2023/05/31 10:29:14;;;;;;;5.10;4.60;;;;;;;24.42;61.61;64529.25;5114925;28;20289;-85
2023/05/31 10:31:50;;;;;;;4.80;4.40;;;;;;;24.55;59.44;64542.34;5131812;28;20214;-83
2023/05/31 10:34:21;;;;;;;5.38;4.22;;;;;;;24.56;59.19;64545.97;5128401;28;20198;-85
2023/05/31 10:36:50;;;;;;;4.57;4.28;;;;;;;24.75;58.93;64565.91;5131480;28;20210;-81
2023/05/31 10:39:27;;;;;;;4.70;4.03;;;;;;;24.61;57.18;64548.63;5134116;28;20206;-83
2023/05/31 10:42:04;;;;;;;3.88;3.58;;;;;;;24.87;59.73;64578.47;5131308;28;20210;-85
2023/05/31 10:44:42;;;;;;;4.82;4.32;;;;;;;25.13;59.07;64605.69;5125210;28;20199;-83
2023/05/31 10:47:12;;;;;;;5.18;4.68;;;;;;;25.42;56.60;64632.97;5111255;28;20270;-83
2023/05/31 10:49:43;;;;;;;4.72;4.32;;;;;;;25.58;55.36;64652.88;5110868;28;20231;-83
2023/05/31 10:52:11;;;;;;;4.85;4.25;;;;;;;25.70;55.60;64660.22;5110621;28;20215;-81
2023/05/31 10:54:39;;;;;;;4.07;3.80;;;;;;;25.76;52.85;64669.13;5108407;28;20195;-84
2023/05/31 10:57:10;;;;;;;4.97;4.30;;;;;;;25.86;49.85;64682.22;5110364;28;20226;-81
2023/05/31 10:59:46;;;;;;;3.85;3.55;;;;;;;25.95;51.35;64685.91;5112080;28;20191;-84
2023/05/31 11:02:16;;;;;;;4.50;4.03;;;;;;;26.17;50.43;64709.50;5111793;28;20207;-83
2023/05/31 11:04:43;;;;;;;3.70;3.50;;;;;;;25.94;48.33;64690.06;5110705;28;20214;-79
2023/05/31 11:07:14;;;;;;;6.28;3.70;;;;;;;25.88;50.63;64683.78;5110264;28;20260;-80
2023/05/31 11:09:41;;;;;;;3.28;3.08;;;;;;;25.86;47.81;64676.47;5110705;28;20223;-81
2023/05/31 11:12:31;;;;;;;3.78;3.47;;;;;;;26.44;48.48;64737.28;5110845;28;20313;-80
2023/05/31 11:15:01;;;;;;;4.20;3.35;;;;;;;26.99;48.21;64799.69;5111230;28;20223;-81
2023/05/31 11:17:31;;;;;;;2.60;2.50;;;;;;;27.38;45.34;64837.50;5111412;28;20265;-81
2023/05/31 11:19:58;;;;;;;3.35;3.15;;;;;;;26.78;47.47;64777.66;5110449;28;20267;-83
2023/05/31 11:22:29;;;;;;;5.75;3.60;;;;;;;26.71;47.36;64772.94;5109160;28;20247;-82
2023/05/31 11:24:57;;;;;;;4.18;3.88;;;;;;;26.39;46.46;64734.66;5109061;28;20255;-81
2023/05/31 11:27:36;;;;;;;3.53;3.33;;;;;;;26.55;48.61;64750.91;5121568;28;20375;-80
2023/05/31 11:30:04;;;;;;;3.80;3.50;;;;;;;26.83;46.04;64780.31;5122091;28;20222;-81
2023/05/31 11:33:01;;;;;;;3.03;2.83;;;;;;;26.90;43.36;64793.41;5120535;28;20216;-80
2023/05/31 11:35:33;;;;;;;4.45;3.25;;;;;;;26.78;47.11;64772.44;5084029;28;20198;-79